sensor_id;sensor_type;location;lat;lon;timestamp;pressure;altitude;pressure_sealevel;temperature;humidity
9189;BME280;34313;50.780;6.084;2023-02-28T00:01:18;100781.56;;;-0.83;87.50
9189;BME280;34313;50.780;6.084;2023-02-28T00:03:44;100780.56;;;-0.97;87.30
9189;BME280;34313;50.780;6.084;2023-02-28T00:06:09;100786.66;;;-0.92;87.98
9189;BME280;34313;50.780;6.084;2023-02-28T00:08:36;100782.25;;;-1.02;87.96
9189;BME280;34313;50.780;6.084;2023-02-28T00:11:07;100779.72;;;-0.96;87.29
9189;BME280;34313;50.780;6.084;2023-02-28T00:13:34;100789.19;;;-1.00;87.46
9189;BME280;34313;50.780;6.084;2023-02-28T00:16:12;100787.53;;;-0.94;87.32
9189;BME280;34313;50.780;6.084;2023-02-28T00:18:38;100787.47;;;-0.99;87.33
9189;BME280;34313;50.780;6.084;2023-02-28T00:21:04;100791.75;;;-1.01;87.42
9189;BME280;34313;50.780;6.084;2023-02-28T00:23:30;100790.88;;;-1.02;87.34
9189;BME280;34313;50.780;6.084;2023-02-28T00:25:56;100783.91;;;-1.09;87.62
9189;BME280;34313;50.780;6.084;2023-02-28T00:28:21;100785.69;;;-1.06;87.25
9189;BME280;34313;50.780;6.084;2023-02-28T00:30:47;100786.56;;;-1.04;87.04
9189;BME280;34313;50.780;6.084;2023-02-28T00:33:13;100781.38;;;-1.04;86.73
9189;BME280;34313;50.780;6.084;2023-02-28T00:35:38;100783.09;;;-1.06;87.35
9189;BME280;34313;50.780;6.084;2023-02-28T00:38:04;100789.97;;;-1.08;87.38
9189;BME280;34313;50.780;6.084;2023-02-28T00:40:29;100789.88;;;-1.15;87.29
9189;BME280;34313;50.780;6.084;2023-02-28T00:42:55;100788.94;;;-1.23;88.19
9189;BME280;34313;50.780;6.084;2023-02-28T00:45:20;100796.59;;;-1.32;88.51
9189;BME280;34313;50.780;6.084;2023-02-28T00:47:46;100782.81;;;-1.33;88.46
9189;BME280;34313;50.780;6.084;2023-02-28T00:50:15;100792.34;;;-1.28;88.40
9189;BME280;34313;50.780;6.084;2023-02-28T00:52:41;100788.81;;;-1.35;88.18
9189;BME280;34313;50.780;6.084;2023-02-28T00:55:06;100789.75;;;-1.31;88.50
9189;BME280;34313;50.780;6.084;2023-02-28T00:57:32;100790.53;;;-1.36;87.70
9189;BME280;34313;50.780;6.084;2023-02-28T00:59:57;100798.38;;;-1.29;88.22
9189;BME280;34313;50.780;6.084;2023-02-28T01:02:23;100795.78;;;-1.26;87.55
9189;BME280;34313;50.780;6.084;2023-02-28T01:04:49;100800.03;;;-1.35;87.71
9189;BME280;34313;50.780;6.084;2023-02-28T01:07:14;100803.53;;;-1.31;88.00
9189;BME280;34313;50.780;6.084;2023-02-28T01:09:41;100801.84;;;-1.26;87.28
9189;BME280;34313;50.780;6.084;2023-02-28T01:12:07;100794.81;;;-1.38;88.02
9189;BME280;34313;50.780;6.084;2023-02-28T01:14:33;100798.28;;;-1.36;87.53
9189;BME280;34313;50.780;6.084;2023-02-28T01:16:59;100795.72;;;-1.34;87.40
9189;BME280;34313;50.780;6.084;2023-02-28T01:19:24;100803.38;;;-1.45;87.82
9189;BME280;34313;50.780;6.084;2023-02-28T01:21:50;100805.84;;;-1.54;88.27
9189;BME280;34313;50.780;6.084;2023-02-28T01:24:15;100804.88;;;-1.62;88.54
9189;BME280;34313;50.780;6.084;2023-02-28T01:26:40;100809.28;;;-1.55;88.74
9189;BME280;34313;50.780;6.084;2023-02-28T01:29:06;100810.09;;;-1.56;88.94
9189;BME280;34313;50.780;6.084;2023-02-28T01:31:31;100809.22;;;-1.60;89.61
9189;BME280;34313;50.780;6.084;2023-02-28T01:33:56;100805.84;;;-1.56;88.93
9189;BME280;34313;50.780;6.084;2023-02-28T01:36:24;100802.41;;;-1.53;88.51
9189;BME280;34313;50.780;6.084;2023-02-28T01:38:50;100794.59;;;-1.59;88.43
9189;BME280;34313;50.780;6.084;2023-02-28T01:41:19;100800.66;;;-1.56;88.19
9189;BME280;34313;50.780;6.084;2023-02-28T01:46:11;100794.63;;;-1.53;87.79
9189;BME280;34313;50.780;6.084;2023-02-28T01:48:40;100804.94;;;-1.56;87.88
9189;BME280;34313;50.780;6.084;2023-02-28T01:51:20;100799.72;;;-1.61;87.97
9189;BME280;34313;50.780;6.084;2023-02-28T01:53:56;100798.81;;;-1.64;88.34
9189;BME280;34313;50.780;6.084;2023-02-28T01:56:27;100795.25;;;-1.74;88.54
9189;BME280;34313;50.780;6.084;2023-02-28T01:58:55;100793.59;;;-1.69;88.40
9189;BME280;34313;50.780;6.084;2023-02-28T02:01:22;100794.44;;;-1.68;88.50
9189;BME280;34313;50.780;6.084;2023-02-28T02:03:53;100787.63;;;-1.62;88.09
9189;BME280;34313;50.780;6.084;2023-02-28T02:06:34;100793.69;;;-1.63;88.20
9189;BME280;34313;50.780;6.084;2023-02-28T02:09:01;100785.94;;;-1.61;87.89
9189;BME280;34313;50.780;6.084;2023-02-28T02:11:26;100780.69;;;-1.67;88.16
9189;BME280;34313;50.780;6.084;2023-02-28T02:14:12;100784.16;;;-1.65;87.95
9189;BME280;34313;50.780;6.084;2023-02-28T02:24:58;100772.03;;;-1.71;88.38
9189;BME280;34313;50.780;6.084;2023-02-28T02:33:07;100774.53;;;-1.76;88.50
9189;BME280;34313;50.780;6.084;2023-02-28T02:35:49;100771.78;;;-1.90;88.66
9189;BME280;34313;50.780;6.084;2023-02-28T02:41:19;100770.88;;;-1.96;89.73
9189;BME280;34313;50.780;6.084;2023-02-28T02:44:15;100769.13;;;-1.96;89.58
9189;BME280;34313;50.780;6.084;2023-02-28T02:46:45;100771.59;;;-2.06;90.17
9189;BME280;34313;50.780;6.084;2023-02-28T02:49:36;100772.38;;;-2.11;90.75
9189;BME280;34313;50.780;6.084;2023-02-28T02:52:05;100774.09;;;-2.11;90.79
9189;BME280;34313;50.780;6.084;2023-02-28T02:54:35;100765.38;;;-2.18;91.58
9189;BME280;34313;50.780;6.084;2023-02-28T02:57:05;100771.59;;;-2.05;90.66
9189;BME280;34313;50.780;6.084;2023-02-28T02:59:35;100766.41;;;-2.06;90.87
9189;BME280;34313;50.780;6.084;2023-02-28T03:02:04;100774.81;;;-2.20;91.48
9189;BME280;34313;50.780;6.084;2023-02-28T03:04:34;100769.81;;;-2.09;91.88
9189;BME280;34313;50.780;6.084;2023-02-28T03:07:01;100765.53;;;-2.08;90.99
9189;BME280;34313;50.780;6.084;2023-02-28T03:09:26;100768.03;;;-2.13;91.22
9189;BME280;34313;50.780;6.084;2023-02-28T03:11:54;100761.16;;;-2.13;91.43
9189;BME280;34313;50.780;6.084;2023-02-28T03:20:08;100756.69;;;-2.26;91.69
9189;BME280;34313;50.780;6.084;2023-02-28T03:30:33;100756.00;;;-2.11;92.16
9189;BME280;34313;50.780;6.084;2023-02-28T03:33:08;100758.69;;;-2.05;92.05
9189;BME280;34313;50.780;6.084;2023-02-28T03:35:51;100758.84;;;-1.93;91.24
9189;BME280;34313;50.780;6.084;2023-02-28T03:38:22;100758.88;;;-1.88;90.66
9189;BME280;34313;50.780;6.084;2023-02-28T03:40:57;100758.16;;;-1.78;90.88
9189;BME280;34313;50.780;6.084;2023-02-28T03:43:29;100752.25;;;-1.67;90.25
9189;BME280;34313;50.780;6.084;2023-02-28T03:45:58;100760.06;;;-1.64;90.17
9189;BME280;34313;50.780;6.084;2023-02-28T03:48:40;100761.88;;;-1.53;89.52
9189;BME280;34313;50.780;6.084;2023-02-28T03:51:10;100759.38;;;-1.46;88.94
9189;BME280;34313;50.780;6.084;2023-02-28T03:53:47;100760.22;;;-1.50;88.62
9189;BME280;34313;50.780;6.084;2023-02-28T03:56:22;100760.25;;;-1.46;88.21
9189;BME280;34313;50.780;6.084;2023-02-28T04:01:46;100761.94;;;-1.48;87.76
9189;BME280;34313;50.780;6.084;2023-02-28T04:04:12;100766.19;;;-1.55;87.90
9189;BME280;34313;50.780;6.084;2023-02-28T04:06:39;100759.94;;;-1.72;88.46
9189;BME280;34313;50.780;6.084;2023-02-28T04:09:05;100758.13;;;-1.81;89.68
9189;BME280;34313;50.780;6.084;2023-02-28T04:11:39;100765.72;;;-1.92;89.79
9189;BME280;34313;50.780;6.084;2023-02-28T04:14:06;100760.47;;;-1.99;90.51
9189;BME280;34313;50.780;6.084;2023-02-28T04:16:34;100756.19;;;-1.97;90.41
9189;BME280;34313;50.780;6.084;2023-02-28T04:18:59;100761.31;;;-2.00;90.45
9189;BME280;34313;50.780;6.084;2023-02-28T04:21:31;100760.34;;;-2.07;90.98
9189;BME280;34313;50.780;6.084;2023-02-28T04:23:57;100762.03;;;-2.11;91.16
9189;BME280;34313;50.780;6.084;2023-02-28T04:26:29;100755.81;;;-2.25;91.98
9189;BME280;34313;50.780;6.084;2023-02-28T04:28:55;100759.97;;;-2.36;92.17
9189;BME280;34313;50.780;6.084;2023-02-28T04:31:20;100764.09;;;-2.48;92.36
9189;BME280;34313;50.780;6.084;2023-02-28T04:33:46;100760.53;;;-2.57;93.08
9189;BME280;34313;50.780;6.084;2023-02-28T04:36:11;100764.59;;;-2.70;94.70
9189;BME280;34313;50.780;6.084;2023-02-28T04:38:38;100758.53;;;-2.74;94.93
9189;BME280;34313;50.780;6.084;2023-02-28T04:41:04;100769.63;;;-2.79;95.27
9189;BME280;34313;50.780;6.084;2023-02-28T04:43:30;100763.66;;;-2.77;95.33
9189;BME280;34313;50.780;6.084;2023-02-28T04:45:57;100761.06;;;-2.77;95.86
9189;BME280;34313;50.780;6.084;2023-02-28T04:48:24;100765.47;;;-2.71;95.17
9189;BME280;34313;50.780;6.084;2023-02-28T04:50:50;100773.97;;;-2.77;96.23
9189;BME280;34313;50.780;6.084;2023-02-28T04:53:16;100772.22;;;-2.78;95.77
9189;BME280;34313;50.780;6.084;2023-02-28T04:55:41;100774.16;;;-2.66;95.35
9189;BME280;34313;50.780;6.084;2023-02-28T04:58:06;100781.72;;;-2.75;95.68
9189;BME280;34313;50.780;6.084;2023-02-28T05:00:32;100789.47;;;-2.75;96.04
9189;BME280;34313;50.780;6.084;2023-02-28T05:02:57;100783.59;;;-2.65;95.97
9189;BME280;34313;50.780;6.084;2023-02-28T05:05:22;100777.59;;;-2.66;95.75
9189;BME280;34313;50.780;6.084;2023-02-28T05:07:48;100788.03;;;-2.58;95.22
9189;BME280;34313;50.780;6.084;2023-02-28T05:10:13;100789.91;;;-2.48;94.56
9189;BME280;34313;50.780;6.084;2023-02-28T05:12:38;100783.69;;;-2.60;95.01
9189;BME280;34313;50.780;6.084;2023-02-28T05:15:04;100789.66;;;-2.64;95.38
9189;BME280;34313;50.780;6.084;2023-02-28T05:17:30;100788.59;;;-2.76;95.42
9189;BME280;34313;50.780;6.084;2023-02-28T05:19:55;100782.56;;;-2.76;95.90
9189;BME280;34313;50.780;6.084;2023-02-28T05:22:21;100785.78;;;-2.90;96.37
9189;BME280;34313;50.780;6.084;2023-02-28T05:24:46;100783.09;;;-2.97;96.74
9189;BME280;34313;50.780;6.084;2023-02-28T05:27:12;100796.25;;;-2.82;96.60
9189;BME280;34313;50.780;6.084;2023-02-28T05:29:37;100791.94;;;-2.81;96.39
9189;BME280;34313;50.780;6.084;2023-02-28T05:32:11;100793.66;;;-2.82;96.31
9189;BME280;34313;50.780;6.084;2023-02-28T05:34:40;100787.69;;;-2.79;96.63
9189;BME280;34313;50.780;6.084;2023-02-28T05:37:07;100778.41;;;-2.70;96.49
9189;BME280;34313;50.780;6.084;2023-02-28T05:39:36;100792.19;;;-2.68;96.19
9189;BME280;34313;50.780;6.084;2023-02-28T05:42:01;100789.66;;;-2.64;96.07
9189;BME280;34313;50.780;6.084;2023-02-28T05:44:27;100784.50;;;-2.64;96.36
9189;BME280;34313;50.780;6.084;2023-02-28T05:46:52;100788.66;;;-2.73;96.26
9189;BME280;34313;50.780;6.084;2023-02-28T05:49:17;100781.59;;;-2.83;96.62
9189;BME280;34313;50.780;6.084;2023-02-28T05:51:43;100790.16;;;-2.84;96.62
9189;BME280;34313;50.780;6.084;2023-02-28T05:54:08;100782.22;;;-2.98;96.89
9189;BME280;34313;50.780;6.084;2023-02-28T05:56:34;100783.91;;;-2.98;97.31
9189;BME280;34313;50.780;6.084;2023-02-28T05:59:05;100789.00;;;-3.03;96.79
9189;BME280;34313;50.780;6.084;2023-02-28T06:04:01;100790.16;;;-2.86;97.17
9189;BME280;34313;50.780;6.084;2023-02-28T06:06:26;100783.78;;;-3.06;96.88
9189;BME280;34313;50.780;6.084;2023-02-28T06:08:52;100781.00;;;-3.18;97.61
9189;BME280;34313;50.780;6.084;2023-02-28T06:11:17;100786.91;;;-3.24;98.32
9189;BME280;34313;50.780;6.084;2023-02-28T06:13:45;100789.53;;;-3.22;98.86
9189;BME280;34313;50.780;6.084;2023-02-28T06:16:10;100788.66;;;-3.21;98.60
9189;BME280;34313;50.780;6.084;2023-02-28T06:18:36;100787.72;;;-3.27;98.97
9189;BME280;34313;50.780;6.084;2023-02-28T06:21:01;100793.78;;;-3.23;99.18
9189;BME280;34313;50.780;6.084;2023-02-28T06:23:27;100797.31;;;-3.18;99.08
9189;BME280;34313;50.780;6.084;2023-02-28T06:25:52;100800.09;;;-3.07;99.39
9189;BME280;34313;50.780;6.084;2023-02-28T06:28:18;100795.81;;;-3.07;99.53
9189;BME280;34313;50.780;6.084;2023-02-28T06:30:44;100795.78;;;-3.08;99.32
9189;BME280;34313;50.780;6.084;2023-02-28T06:33:09;100801.03;;;-3.02;99.40
9189;BME280;34313;50.780;6.084;2023-02-28T06:35:35;100806.38;;;-2.91;99.24
9189;BME280;34313;50.780;6.084;2023-02-28T06:38:00;100803.88;;;-2.88;99.15
9189;BME280;34313;50.780;6.084;2023-02-28T06:40:25;100815.34;;;-2.71;98.19
9189;BME280;34313;50.780;6.084;2023-02-28T06:42:51;100803.50;;;-2.59;97.79
9189;BME280;34313;50.780;6.084;2023-02-28T06:45:17;100810.56;;;-2.48;97.42
9189;BME280;34313;50.780;6.084;2023-02-28T06:47:42;100825.44;;;-2.33;96.79
9189;BME280;34313;50.780;6.084;2023-02-28T06:50:11;100821.31;;;-2.20;97.00
9189;BME280;34313;50.780;6.084;2023-02-28T06:52:37;100822.38;;;-2.05;96.82
9189;BME280;34313;50.780;6.084;2023-02-28T06:55:06;100826.22;;;-1.77;96.02
9189;BME280;34313;50.780;6.084;2023-02-28T06:57:33;100827.25;;;-1.64;92.70
9189;BME280;34313;50.780;6.084;2023-02-28T07:00:00;100834.41;;;-1.43;92.46
9189;BME280;34313;50.780;6.084;2023-02-28T07:02:26;100841.50;;;-1.27;90.25
9189;BME280;34313;50.780;6.084;2023-02-28T07:04:51;100836.81;;;-0.82;90.35
9189;BME280;34313;50.780;6.084;2023-02-28T07:07:17;100842.09;;;-0.71;85.88
9189;BME280;34313;50.780;6.084;2023-02-28T07:09:42;100841.41;;;-0.52;84.82
9189;BME280;34313;50.780;6.084;2023-02-28T07:12:07;100830.53;;;-0.05;83.59
9189;BME280;34313;50.780;6.084;2023-02-28T07:14:33;100837.63;;;0.27;78.53
9189;BME280;34313;50.780;6.084;2023-02-28T07:16:58;100837.72;;;0.50;76.51
9189;BME280;34313;50.780;6.084;2023-02-28T07:19:23;100828.31;;;0.75;75.96
9189;BME280;34313;50.780;6.084;2023-02-28T07:21:49;100830.16;;;1.29;73.40
9189;BME280;34313;50.780;6.084;2023-02-28T07:24:14;100832.75;;;1.67;70.56
9189;BME280;34313;50.780;6.084;2023-02-28T07:26:41;100830.91;;;2.33;68.79
9189;BME280;34313;50.780;6.084;2023-02-28T07:29:06;100830.75;;;2.70;65.02
9189;BME280;34313;50.780;6.084;2023-02-28T07:31:32;100825.91;;;3.53;62.13
9189;BME280;34313;50.780;6.084;2023-02-28T07:33:57;100822.09;;;3.91;59.91
9189;BME280;34313;50.780;6.084;2023-02-28T07:36:23;100813.31;;;4.02;58.37
9189;BME280;34313;50.780;6.084;2023-02-28T07:38:49;100816.84;;;4.70;56.15
9189;BME280;34313;50.780;6.084;2023-02-28T07:41:20;100823.34;;;5.05;54.05
9189;BME280;34313;50.780;6.084;2023-02-28T07:43:46;100826.75;;;5.10;52.79
9189;BME280;34313;50.780;6.084;2023-02-28T07:46:13;100821.69;;;6.09;51.57
9189;BME280;34313;50.780;6.084;2023-02-28T07:48:43;100820.44;;;6.72;49.09
9189;BME280;34313;50.780;6.084;2023-02-28T07:51:10;100823.22;;;7.42;47.19
9189;BME280;34313;50.780;6.084;2023-02-28T07:53:35;100807.78;;;7.99;44.61
9189;BME280;34313;50.780;6.084;2023-02-28T07:56:02;100810.34;;;7.67;44.67
9189;BME280;34313;50.780;6.084;2023-02-28T07:58:30;100821.63;;;6.96;45.97
9189;BME280;34313;50.780;6.084;2023-02-28T08:00:56;100823.75;;;7.19;45.13
9189;BME280;34313;50.780;6.084;2023-02-28T08:03:29;100824.13;;;6.18;47.45
9189;BME280;34313;50.780;6.084;2023-02-28T08:05:54;100812.38;;;6.81;46.30
9189;BME280;34313;50.780;6.084;2023-02-28T08:08:20;100808.03;;;7.89;44.00
9189;BME280;34313;50.780;6.084;2023-02-28T08:10:48;100812.22;;;7.97;43.10
9189;BME280;34313;50.780;6.084;2023-02-28T08:13:13;100820.75;;;7.34;43.97
9189;BME280;34313;50.780;6.084;2023-02-28T08:15:41;100824.91;;;7.79;43.57
9189;BME280;34313;50.780;6.084;2023-02-28T08:18:06;100820.88;;;7.66;43.44
9189;BME280;34313;50.780;6.084;2023-02-28T08:20:32;100825.56;;;6.76;44.56
9189;BME280;34313;50.780;6.084;2023-02-28T08:22:57;100826.75;;;6.61;45.49
9189;BME280;34313;50.780;6.084;2023-02-28T08:25:23;100826.69;;;6.21;45.54
9189;BME280;34313;50.780;6.084;2023-02-28T08:27:50;100832.06;;;6.57;45.19
9189;BME280;34313;50.780;6.084;2023-02-28T08:30:16;100826.75;;;7.02;44.66
9189;BME280;34313;50.780;6.084;2023-02-28T08:32:42;100824.78;;;6.71;44.59
9189;BME280;34313;50.780;6.084;2023-02-28T08:35:08;100828.91;;;6.41;45.56
9189;BME280;34313;50.780;6.084;2023-02-28T08:37:34;100820.41;;;7.12;44.33
9189;BME280;34313;50.780;6.084;2023-02-28T08:40:00;100825.44;;;6.82;44.13
9189;BME280;34313;50.780;6.084;2023-02-28T08:42:25;100823.19;;;7.44;43.58
9189;BME280;34313;50.780;6.084;2023-02-28T08:44:51;100830.66;;;7.23;42.70
9189;BME280;34313;50.780;6.084;2023-02-28T08:47:16;100824.72;;;6.74;43.72
9189;BME280;34313;50.780;6.084;2023-02-28T08:49:41;100825.03;;;6.59;43.64
9189;BME280;34313;50.780;6.084;2023-02-28T08:52:07;100829.75;;;6.41;44.90
9189;BME280;34313;50.780;6.084;2023-02-28T08:54:32;100829.00;;;6.36;43.33
9189;BME280;34313;50.780;6.084;2023-02-28T08:56:59;100816.78;;;5.87;44.58
9189;BME280;34313;50.780;6.084;2023-02-28T08:59:24;100820.28;;;5.87;44.89
9189;BME280;34313;50.780;6.084;2023-02-28T09:01:50;100825.00;;;6.17;43.41
9189;BME280;34313;50.780;6.084;2023-02-28T09:04:15;100821.66;;;6.10;43.83
9189;BME280;34313;50.780;6.084;2023-02-28T09:06:41;100821.75;;;6.04;43.11
9189;BME280;34313;50.780;6.084;2023-02-28T09:09:07;100822.38;;;5.67;42.88
9189;BME280;34313;50.780;6.084;2023-02-28T09:11:34;100830.34;;;5.03;43.07
9189;BME280;34313;50.780;6.084;2023-02-28T09:14:00;100822.78;;;5.42;43.61
9189;BME280;34313;50.780;6.084;2023-02-28T09:16:26;100832.69;;;4.57;43.79
9189;BME280;34313;50.780;6.084;2023-02-28T09:18:52;100814.16;;;4.01;45.75
9189;BME280;34313;50.780;6.084;2023-02-28T09:21:20;100820.97;;;4.87;45.40
9189;BME280;34313;50.780;6.084;2023-02-28T09:23:47;100823.06;;;4.60;44.48
9189;BME280;34313;50.780;6.084;2023-02-28T09:26:33;100818.97;;;4.39;43.30
9189;BME280;34313;50.780;6.084;2023-02-28T09:28:59;100814.25;;;3.94;45.06
9189;BME280;34313;50.780;6.084;2023-02-28T09:31:27;100818.16;;;4.32;45.05
9189;BME280;34313;50.780;6.084;2023-02-28T09:33:55;100833.19;;;4.85;43.21
9189;BME280;34313;50.780;6.084;2023-02-28T09:36:22;100821.63;;;5.01;43.15
9189;BME280;34313;50.780;6.084;2023-02-28T09:38:47;100814.69;;;5.00;42.90
9189;BME280;34313;50.780;6.084;2023-02-28T09:41:27;100804.94;;;5.13;42.40
9189;BME280;34313;50.780;6.084;2023-02-28T09:43:59;100800.31;;;5.29;42.59
9189;BME280;34313;50.780;6.084;2023-02-28T09:46:39;100803.03;;;4.61;42.54
9189;BME280;34313;50.780;6.084;2023-02-28T09:49:18;100797.88;;;4.58;42.73
9189;BME280;34313;50.780;6.084;2023-02-28T09:54:28;100800.56;;;4.48;42.00
9189;BME280;34313;50.780;6.084;2023-02-28T09:57:15;100808.66;;;4.28;42.27
9189;BME280;34313;50.780;6.084;2023-02-28T10:02:53;100823.81;;;4.70;40.49
9189;BME280;34313;50.780;6.084;2023-02-28T10:05:22;100821.31;;;3.82;41.65
9189;BME280;34313;50.780;6.084;2023-02-28T10:10:24;100816.53;;;3.28;42.98
9189;BME280;34313;50.780;6.084;2023-02-28T10:12:53;100823.31;;;3.50;43.37
9189;BME280;34313;50.780;6.084;2023-02-28T10:15:23;100812.72;;;3.72;42.72
9189;BME280;34313;50.780;6.084;2023-02-28T10:17:54;100824.13;;;3.58;41.70
9189;BME280;34313;50.780;6.084;2023-02-28T10:20:23;100819.13;;;3.32;42.63
9189;BME280;34313;50.780;6.084;2023-02-28T10:25:38;100810.13;;;3.67;42.27
9189;BME280;34313;50.780;6.084;2023-02-28T10:30:32;100812.09;;;3.42;40.80
9189;BME280;34313;50.780;6.084;2023-02-28T10:32:58;100813.81;;;3.45;40.87
9189;BME280;34313;50.780;6.084;2023-02-28T10:35:25;100830.53;;;3.17;40.85
9189;BME280;34313;50.780;6.084;2023-02-28T10:37:56;100818.50;;;2.90;40.52
9189;BME280;34313;50.780;6.084;2023-02-28T10:43:02;100808.69;;;3.29;38.79
9189;BME280;34313;50.780;6.084;2023-02-28T10:45:30;100816.56;;;3.26;39.09
9189;BME280;34313;50.780;6.084;2023-02-28T10:48:06;100807.66;;;3.50;38.94
9189;BME280;34313;50.780;6.084;2023-02-28T10:56:25;100810.06;;;3.75;39.20
9189;BME280;34313;50.780;6.084;2023-02-28T10:59:28;100802.50;;;3.46;39.70
9189;BME280;34313;50.780;6.084;2023-02-28T11:01:48;100805.34;;;3.15;39.92
9189;BME280;34313;50.780;6.084;2023-02-28T11:09:45;100793.75;;;3.54;40.25
9189;BME280;34313;50.780;6.084;2023-02-28T11:12:48;100797.22;;;3.52;39.80
9189;BME280;34313;50.780;6.084;2023-02-28T11:15:26;100776.25;;;3.66;39.95
9189;BME280;34313;50.780;6.084;2023-02-28T11:20:32;100774.00;;;3.24;40.09
9189;BME280;34313;50.780;6.084;2023-02-28T11:23:00;100771.53;;;3.06;41.33
9189;BME280;34313;50.780;6.084;2023-02-28T11:25:32;100781.94;;;3.09;40.64
9189;BME280;34313;50.780;6.084;2023-02-28T11:28:03;100776.66;;;3.19;39.98
9189;BME280;34313;50.780;6.084;2023-02-28T11:30:37;100781.88;;;3.18;40.53
9189;BME280;34313;50.780;6.084;2023-02-28T11:33:26;100777.69;;;2.97;40.44
9189;BME280;34313;50.780;6.084;2023-02-28T11:35:53;100790.72;;;2.92;40.63
9189;BME280;34313;50.780;6.084;2023-02-28T11:38:24;100771.41;;;3.22;40.60
9189;BME280;34313;50.780;6.084;2023-02-28T11:44:00;100779.06;;;3.43;41.12
9189;BME280;34313;50.780;6.084;2023-02-28T11:46:36;100787.75;;;3.45;40.96
9189;BME280;34313;50.780;6.084;2023-02-28T12:05:49;100762.72;;;4.13;40.18
9189;BME280;34313;50.780;6.084;2023-02-28T12:19:28;100753.84;;;3.45;40.97
9189;BME280;34313;50.780;6.084;2023-02-28T12:27:27;100766.88;;;3.45;42.07
9189;BME280;34313;50.780;6.084;2023-02-28T12:30:13;100752.78;;;3.66;41.49
9189;BME280;34313;50.780;6.084;2023-02-28T12:32:49;100745.66;;;3.85;40.61
9189;BME280;34313;50.780;6.084;2023-02-28T12:35:23;100753.34;;;3.97;40.32
9189;BME280;34313;50.780;6.084;2023-02-28T12:37:56;100759.78;;;3.64;41.05
9189;BME280;34313;50.780;6.084;2023-02-28T12:40:28;100756.34;;;3.57;41.25
9189;BME280;34313;50.780;6.084;2023-02-28T12:43:02;100747.72;;;3.49;41.56
9189;BME280;34313;50.780;6.084;2023-02-28T12:45:51;100746.03;;;3.48;41.11
9189;BME280;34313;50.780;6.084;2023-02-28T12:48:28;100749.34;;;3.62;40.70
9189;BME280;34313;50.780;6.084;2023-02-28T12:50:55;100742.50;;;3.52;41.65
9189;BME280;34313;50.780;6.084;2023-02-28T12:55:57;100743.09;;;3.80;40.02
9189;BME280;34313;50.780;6.084;2023-02-28T12:58:40;100735.19;;;3.88;40.68
9189;BME280;34313;50.780;6.084;2023-02-28T13:04:31;100724.06;;;3.70;40.37
9189;BME280;34313;50.780;6.084;2023-02-28T13:09:54;100723.97;;;3.78;40.96
9189;BME280;34313;50.780;6.084;2023-02-28T13:12:20;100716.09;;;3.86;40.51
9189;BME280;34313;50.780;6.084;2023-02-28T13:14:48;100717.63;;;4.04;40.92
9189;BME280;34313;50.780;6.084;2023-02-28T13:17:22;100722.84;;;4.02;40.68
9189;BME280;34313;50.780;6.084;2023-02-28T13:24:54;100694.13;;;4.05;40.25
9189;BME280;34313;50.780;6.084;2023-02-28T13:27:25;100714.09;;;4.06;40.28
9189;BME280;34313;50.780;6.084;2023-02-28T13:29:56;100692.53;;;3.93;41.00
9189;BME280;34313;50.780;6.084;2023-02-28T13:39:54;100708.88;;;4.08;40.62
9189;BME280;34313;50.780;6.084;2023-02-28T13:47:34;100689.47;;;4.27;40.65
9189;BME280;34313;50.780;6.084;2023-02-28T13:55:37;100690.47;;;4.19;41.14
9189;BME280;34313;50.780;6.084;2023-02-28T14:06:29;100692.81;;;3.69;41.75
9189;BME280;34313;50.780;6.084;2023-02-28T14:09:00;100694.81;;;3.42;42.68
9189;BME280;34313;50.780;6.084;2023-02-28T14:11:32;100685.69;;;3.82;42.70
9189;BME280;34313;50.780;6.084;2023-02-28T14:13:59;100681.91;;;4.09;42.04
9189;BME280;34313;50.780;6.084;2023-02-28T14:16:48;100683.06;;;3.85;43.09
9189;BME280;34313;50.780;6.084;2023-02-28T14:19:26;100684.66;;;3.98;43.15
9189;BME280;34313;50.780;6.084;2023-02-28T14:25:22;100671.97;;;4.37;42.04
9189;BME280;34313;50.780;6.084;2023-02-28T14:28:24;100676.56;;;4.16;41.92
9189;BME280;34313;50.780;6.084;2023-02-28T14:30:59;100675.41;;;4.38;41.79
9189;BME280;34313;50.780;6.084;2023-02-28T14:38:30;100665.03;;;4.33;42.46
9189;BME280;34313;50.780;6.084;2023-02-28T14:40:58;100671.78;;;4.49;42.51
9189;BME280;34313;50.780;6.084;2023-02-28T14:43:27;100669.22;;;4.46;42.34
9189;BME280;34313;50.780;6.084;2023-02-28T14:46:12;100663.31;;;4.33;42.87
9189;BME280;34313;50.780;6.084;2023-02-28T14:48:38;100665.13;;;4.27;42.88
9189;BME280;34313;50.780;6.084;2023-02-28T14:51:04;100661.88;;;4.09;42.99
9189;BME280;34313;50.780;6.084;2023-02-28T14:53:35;100653.38;;;3.95;43.02
9189;BME280;34313;50.780;6.084;2023-02-28T14:56:01;100668.22;;;3.91;43.24
9189;BME280;34313;50.780;6.084;2023-02-28T15:00:54;100664.00;;;3.79;42.96
9189;BME280;34313;50.780;6.084;2023-02-28T15:06:04;100661.25;;;3.89;43.34
9189;BME280;34313;50.780;6.084;2023-02-28T15:08:31;100659.56;;;3.86;43.42
9189;BME280;34313;50.780;6.084;2023-02-28T15:11:21;100645.41;;;4.07;42.84
9189;BME280;34313;50.780;6.084;2023-02-28T15:13:52;100651.50;;;4.03;42.46
9189;BME280;34313;50.780;6.084;2023-02-28T15:16:22;100653.38;;;3.95;42.16
9189;BME280;34313;50.780;6.084;2023-02-28T15:18:59;100648.03;;;4.06;42.43
9189;BME280;34313;50.780;6.084;2023-02-28T15:21:31;100640.97;;;4.14;42.53
9189;BME280;34313;50.780;6.084;2023-02-28T15:23:59;100654.25;;;3.94;42.48
9189;BME280;34313;50.780;6.084;2023-02-28T15:26:41;100654.22;;;3.97;42.66
9189;BME280;34313;50.780;6.084;2023-02-28T15:29:17;100645.34;;;4.10;42.73
9189;BME280;34313;50.780;6.084;2023-02-28T15:31:47;100650.66;;;4.03;42.57
9189;BME280;34313;50.780;6.084;2023-02-28T15:36:52;100653.09;;;4.15;42.31
9189;BME280;34313;50.780;6.084;2023-02-28T15:39:28;100652.25;;;4.16;42.86
9189;BME280;34313;50.780;6.084;2023-02-28T15:42:18;100655.84;;;4.07;42.93
9189;BME280;34313;50.780;6.084;2023-02-28T15:44:44;100647.03;;;4.16;43.09
9189;BME280;34313;50.780;6.084;2023-02-28T15:47:19;100654.94;;;4.08;42.84
9189;BME280;34313;50.780;6.084;2023-02-28T15:52:28;100654.34;;;3.86;42.59
9189;BME280;34313;50.780;6.084;2023-02-28T15:54:56;100644.13;;;3.69;43.25
9189;BME280;34313;50.780;6.084;2023-02-28T15:57:28;100651.25;;;3.53;43.69
9189;BME280;34313;50.780;6.084;2023-02-28T16:00:00;100665.06;;;3.62;43.52